Time;durP1;ratioP1;P1;durP2;ratioP2;P2;SDS_P1;SDS_P2;PMS_P1;PMS_P2;Temp;Humidity;BMP_temperature;BMP_pressure;BME280_temperature;BME280_humidity;BME280_pressure;Samples;Min_cycle;Max_cycle;Signal;HPM_P1;HPM_P2
2021/12/31 00:02:00;;;;;;;;;;;2.50;97.20;;;;;;5054436;28;19991;-67
2021/12/31 00:04:26;;;;;;;;;;;2.50;97.20;;;;;;5054423;28;20004;-67
2021/12/31 00:06:51;;;;;;;;;;;2.50;97.10;;;;;;5054364;28;19951;-67
2021/12/31 00:09:17;;;;;;;;;;;2.50;97.10;;;;;;5054100;28;19977;-67
2021/12/31 00:11:42;;;;;;;;;;;2.50;97.10;;;;;;5054248;28;20059;-67
2021/12/31 00:14:08;;;;;;;;;;;2.50;97.10;;;;;;5054246;28;20351;-67
2021/12/31 00:16:33;;;;;;;;;;;2.40;97.10;;;;;;5054183;28;20345;-67
2021/12/31 00:18:59;;;;;;;;;;;2.40;97.10;;;;;;5054154;28;19937;-67
2021/12/31 00:21:24;;;;;;;;;;;2.30;97.00;;;;;;5054090;28;19979;-67
2021/12/31 00:23:50;;;;;;;;;;;2.30;97.00;;;;;;5053982;28;19945;-67
2021/12/31 00:26:16;;;;;;;;;;;2.10;97.00;;;;;;5053848;28;19941;-67
2021/12/31 00:28:41;;;;;;;;;;;2.00;97.00;;;;;;5053916;28;19940;-67
2021/12/31 00:31:07;;;;;;;;;;;2.00;97.10;;;;;;5053813;28;20012;-67
2021/12/31 00:33:32;;;;;;;;;;;1.90;97.00;;;;;;5054143;28;19945;-67
2021/12/31 00:35:58;;;;;;;;;;;1.80;97.00;;;;;;5053858;28;19949;-67
2021/12/31 00:38:24;;;;;;;;;;;1.70;97.00;;;;;;5053994;28;19992;-67
2021/12/31 00:40:49;;;;;;;;;;;1.70;97.00;;;;;;5053763;28;20466;-67
2021/12/31 00:43:15;;;;;;;;;;;1.60;97.00;;;;;;5019225;28;19949;-67
2021/12/31 00:45:41;;;;;;;;;;;1.50;96.90;;;;;;5053640;28;19944;-67
2021/12/31 00:48:08;;;;;;;;;;;1.50;96.90;;;;;;5052769;28;19977;-67
2021/12/31 00:50:34;;;;;;;;;;;1.40;96.90;;;;;;5053458;28;19986;-66
2021/12/31 00:52:59;;;;;;;;;;;1.40;97.00;;;;;;5053511;28;20464;-67
2021/12/31 00:55:25;;;;;;;;;;;1.40;97.00;;;;;;5053490;28;20391;-67
2021/12/31 00:57:51;;;;;;;;;;;1.40;97.00;;;;;;5053452;28;19942;-67
2021/12/31 01:00:16;;;;;;;;;;;1.30;97.00;;;;;;5053356;28;20040;-67
2021/12/31 01:02:46;;;;;;;;;;;1.40;97.00;;;;;;5053374;28;19985;-67
2021/12/31 01:05:12;;;;;;;;;;;1.30;97.00;;;;;;5035407;28;19999;-67
2021/12/31 01:07:38;;;;;;;;;;;1.40;97.10;;;;;;5053268;28;19950;-67
2021/12/31 01:10:04;;;;;;;;;;;1.40;97.10;;;;;;5052953;28;19980;-67
2021/12/31 01:12:30;;;;;;;;;;;1.40;97.10;;;;;;5053399;28;19966;-67
2021/12/31 01:15:06;;;;;;;;;;;1.40;97.10;;;;;;5053184;28;19939;-67
2021/12/31 01:20:29;;;;;;;;;;;1.40;97.10;;;;;;5019385;28;19943;-67
2021/12/31 01:22:55;;;;;;;;;;;1.40;97.10;;;;;;5053070;28;19949;-67
2021/12/31 01:25:20;;;;;;;;;;;1.40;97.10;;;;;;5053156;28;19937;-67
2021/12/31 01:27:46;;;;;;;;;;;1.40;97.20;;;;;;5052982;28;19957;-67
2021/12/31 01:30:13;;;;;;;;;;;1.40;97.20;;;;;;5053012;28;19949;-67
2021/12/31 01:32:40;;;;;;;;;;;1.40;97.20;;;;;;5053054;28;19944;-67
2021/12/31 01:35:05;;;;;;;;;;;1.40;97.20;;;;;;5052998;28;19943;-67
2021/12/31 01:37:31;;;;;;;;;;;1.40;97.20;;;;;;5035081;28;19947;-67
2021/12/31 01:39:57;;;;;;;;;;;1.40;97.20;;;;;;5052958;28;20040;-67
2021/12/31 01:42:29;;;;;;;;;;;1.40;97.20;;;;;;5052927;28;20392;-67
2021/12/31 01:44:58;;;;;;;;;;;1.40;97.20;;;;;;5052914;28;20007;-67
2021/12/31 01:47:33;;;;;;;;;;;1.40;97.20;;;;;;5052894;28;19982;-67
2021/12/31 01:50:02;;;;;;;;;;;1.40;97.20;;;;;;5052855;28;20024;-67
2021/12/31 01:52:27;;;;;;;;;;;1.40;97.20;;;;;;5034844;28;20054;-67
2021/12/31 01:54:53;;;;;;;;;;;1.40;97.20;;;;;;5053083;28;19989;-67
2021/12/31 01:57:20;;;;;;;;;;;1.40;97.30;;;;;;5052774;28;19945;-67
2021/12/31 01:59:45;;;;;;;;;;;1.40;97.20;;;;;;5054384;28;19993;-67
2021/12/31 02:02:11;;;;;;;;;;;1.50;97.30;;;;;;5056750;28;19944;-67
2021/12/31 02:04:37;;;;;;;;;;;1.50;97.30;;;;;;5056719;28;19989;-67
2021/12/31 02:07:03;;;;;;;;;;;1.50;97.30;;;;;;5056653;28;20031;-67
2021/12/31 02:09:33;;;;;;;;;;;1.60;97.30;;;;;;5038493;28;20069;-67
2021/12/31 02:11:58;;;;;;;;;;;1.70;97.30;;;;;;5056481;28;19983;-67
2021/12/31 02:14:24;;;;;;;;;;;1.70;97.40;;;;;;5056495;28;19938;-67
2021/12/31 02:16:51;;;;;;;;;;;1.70;97.30;;;;;;5056468;28;20394;-67
2021/12/31 02:19:26;;;;;;;;;;;1.70;97.30;;;;;;5056433;28;19995;-67
2021/12/31 02:21:51;;;;;;;;;;;1.70;97.30;;;;;;5056377;28;20011;-67
2021/12/31 02:24:18;;;;;;;;;;;1.80;97.30;;;;;;5038461;28;20427;-67
2021/12/31 02:26:44;;;;;;;;;;;1.90;97.40;;;;;;5056186;28;19948;-67
2021/12/31 02:29:09;;;;;;;;;;;2.00;97.40;;;;;;5056238;28;20024;-67
2021/12/31 02:31:35;;;;;;;;;;;2.00;97.40;;;;;;5056116;28;20064;-67
2021/12/31 02:34:00;;;;;;;;;;;2.00;97.40;;;;;;5038243;28;19948;-67
2021/12/31 02:36:26;;;;;;;;;;;2.00;97.40;;;;;;5056035;28;19946;-67
2021/12/31 02:38:52;;;;;;;;;;;2.00;97.40;;;;;;5056091;28;19944;-67
2021/12/31 02:41:17;;;;;;;;;;;2.10;97.40;;;;;;5037961;28;19955;-67
2021/12/31 02:43:43;;;;;;;;;;;2.10;97.40;;;;;;5055965;28;19967;-67
2021/12/31 02:46:09;;;;;;;;;;;2.10;97.40;;;;;;5055917;28;19948;-67
2021/12/31 02:48:34;;;;;;;;;;;2.10;97.40;;;;;;5055848;28;19999;-67
2021/12/31 02:51:01;;;;;;;;;;;2.10;97.40;;;;;;5055791;28;20335;-67
2021/12/31 02:53:37;;;;;;;;;;;2.20;97.40;;;;;;5055784;28;20406;-67
2021/12/31 02:56:04;;;;;;;;;;;2.20;97.40;;;;;;5037894;28;20028;-67
2021/12/31 02:58:30;;;;;;;;;;;2.20;97.40;;;;;;5055695;28;19935;-67
2021/12/31 03:00:56;;;;;;;;;;;2.20;97.30;;;;;;5055654;28;20395;-67
2021/12/31 03:03:22;;;;;;;;;;;2.20;97.30;;;;;;5055874;28;19946;-67
2021/12/31 03:05:48;;;;;;;;;;;2.30;97.30;;;;;;5055565;28;19992;-67
2021/12/31 03:08:14;;;;;;;;;;;2.30;97.40;;;;;;5055287;28;19940;-67
2021/12/31 03:10:41;;;;;;;;;;;2.40;97.40;;;;;;5054629;28;20060;-67
2021/12/31 03:13:07;;;;;;;;;;;2.40;97.40;;;;;;5055277;28;19946;-67
2021/12/31 03:15:33;;;;;;;;;;;2.50;97.30;;;;;;5055398;28;19947;-67
2021/12/31 03:18:02;;;;;;;;;;;2.50;97.30;;;;;;5055340;28;20438;-67
2021/12/31 03:20:36;;;;;;;;;;;2.50;97.30;;;;;;5037397;28;19939;-67
2021/12/31 03:23:02;;;;;;;;;;;2.50;97.30;;;;;;5055263;28;19938;-67
2021/12/31 03:25:28;;;;;;;;;;;2.50;97.30;;;;;;5055188;28;20325;-67
2021/12/31 03:27:53;;;;;;;;;;;2.50;97.30;;;;;;5055077;28;19974;-67
2021/12/31 03:30:19;;;;;;;;;;;2.50;97.20;;;;;;5055569;28;20387;-67
2021/12/31 03:32:45;;;;;;;;;;;2.50;97.20;;;;;;5055089;28;20027;-67
2021/12/31 03:35:10;;;;;;;;;;;2.50;97.20;;;;;;5055038;28;20446;-67
2021/12/31 03:37:36;;;;;;;;;;;2.60;97.20;;;;;;5054986;28;20152;-67
2021/12/31 03:40:01;;;;;;;;;;;2.60;97.20;;;;;;5055231;28;20001;-67
2021/12/31 03:42:27;;;;;;;;;;;2.60;97.20;;;;;;5054840;28;19959;-67
2021/12/31 03:44:52;;;;;;;;;;;2.70;97.20;;;;;;5054854;28;19945;-67
2021/12/31 03:47:18;;;;;;;;;;;2.70;97.20;;;;;;5054791;28;20343;-67
2021/12/31 03:49:44;;;;;;;;;;;2.70;97.20;;;;;;5054776;28;20340;-67
2021/12/31 03:52:09;;;;;;;;;;;2.60;97.20;;;;;;5054612;28;20403;-67
2021/12/31 03:54:35;;;;;;;;;;;2.60;97.10;;;;;;5054660;28;19986;-67
2021/12/31 03:57:00;;;;;;;;;;;2.60;97.20;;;;;;5054617;28;19936;-67
2021/12/31 03:59:26;;;;;;;;;;;2.70;97.20;;;;;;5054566;28;19937;-67
2021/12/31 04:01:51;;;;;;;;;;;2.60;97.20;;;;;;5054786;28;19993;-67
2021/12/31 04:04:17;;;;;;;;;;;2.60;97.10;;;;;;5054731;28;19953;-67
2021/12/31 04:06:42;;;;;;;;;;;2.60;97.10;;;;;;5036490;28;19970;-67
2021/12/31 04:09:08;;;;;;;;;;;2.70;97.10;;;;;;5054147;28;19990;-67
2021/12/31 04:11:33;;;;;;;;;;;2.70;97.10;;;;;;5054512;28;19966;-67
2021/12/31 04:13:59;;;;;;;;;;;2.70;97.10;;;;;;5054233;28;20092;-67
2021/12/31 04:16:24;;;;;;;;;;;2.80;97.10;;;;;;5054186;28;20418;-67
2021/12/31 04:18:50;;;;;;;;;;;2.90;97.20;;;;;;5054112;28;19946;-67
2021/12/31 04:21:17;;;;;;;;;;;2.90;97.10;;;;;;5054097;28;19943;-67
2021/12/31 04:23:53;;;;;;;;;;;2.90;97.10;;;;;;5053972;28;20041;-67
2021/12/31 04:26:19;;;;;;;;;;;2.90;97.10;;;;;;5053961;28;20424;-67
2021/12/31 04:28:45;;;;;;;;;;;2.90;97.10;;;;;;5053934;28;20032;-67
2021/12/31 04:31:11;;;;;;;;;;;2.90;97.10;;;;;;5053879;28;20058;-67
2021/12/31 04:33:36;;;;;;;;;;;2.90;97.10;;;;;;5053867;28;19977;-67
2021/12/31 04:36:02;;;;;;;;;;;2.90;97.00;;;;;;5053876;28;19949;-67
2021/12/31 04:38:28;;;;;;;;;;;2.90;97.00;;;;;;5053999;28;20338;-67
2021/12/31 04:40:53;;;;;;;;;;;2.90;97.00;;;;;;5053729;28;20011;-67
2021/12/31 04:43:19;;;;;;;;;;;2.90;96.90;;;;;;5053708;28;19942;-67
2021/12/31 04:45:44;;;;;;;;;;;2.90;96.90;;;;;;5035783;28;19986;-67
2021/12/31 04:48:10;;;;;;;;;;;2.90;96.90;;;;;;5053635;28;19945;-67
2021/12/31 04:50:35;;;;;;;;;;;2.90;96.90;;;;;;5053490;28;20042;-67
2021/12/31 04:53:04;;;;;;;;;;;2.90;96.80;;;;;;5053558;28;19952;-67
2021/12/31 04:55:30;;;;;;;;;;;2.90;96.80;;;;;;5053490;28;20398;-67
2021/12/31 04:57:55;;;;;;;;;;;2.80;96.80;;;;;;5053421;28;19934;-67
2021/12/31 05:00:21;;;;;;;;;;;2.70;96.70;;;;;;5053388;28;19994;-67
2021/12/31 05:02:46;;;;;;;;;;;2.50;96.60;;;;;;5053345;28;19939;-67
2021/12/31 05:05:12;;;;;;;;;;;2.20;96.60;;;;;;5053340;28;20434;-67
2021/12/31 05:07:38;;;;;;;;;;;2.10;96.60;;;;;;5035401;28;20408;-67
2021/12/31 05:10:04;;;;;;;;;;;2.20;96.70;;;;;;5060522;22;20039;-67
2021/12/31 05:12:32;;;;;;;;;;;2.20;96.90;;;;;;5053162;28;20012;-67
2021/12/31 05:15:00;;;;;;;;;;;2.30;96.90;;;;;;5053231;28;20009;-67
2021/12/31 05:17:26;;;;;;;;;;;2.30;97.00;;;;;;5053464;28;19943;-67
2021/12/31 05:19:51;;;;;;;;;;;2.30;97.00;;;;;;5053187;28;19942;-67
2021/12/31 05:22:17;;;;;;;;;;;2.20;97.00;;;;;;5053104;28;20343;-67
2021/12/31 05:24:42;;;;;;;;;;;2.20;97.00;;;;;;5053108;28;19961;-67
2021/12/31 05:27:08;;;;;;;;;;;2.20;97.00;;;;;;5052966;28;19941;-67
2021/12/31 05:29:34;;;;;;;;;;;2.20;97.10;;;;;;5053034;28;19955;-67
2021/12/31 05:32:00;;;;;;;;;;;2.20;97.10;;;;;;5052936;28;20012;-67
2021/12/31 05:34:25;;;;;;;;;;;2.20;97.10;;;;;;5052476;28;19942;-67
2021/12/31 05:36:51;;;;;;;;;;;2.20;97.10;;;;;;5052943;28;19943;-67
2021/12/31 05:39:16;;;;;;;;;;;2.30;97.10;;;;;;5052941;28;20050;-67
2021/12/31 05:41:42;;;;;;;;;;;2.20;97.10;;;;;;5035089;28;20034;-67
2021/12/31 05:44:08;;;;;;;;;;;2.20;97.10;;;;;;5052885;28;19950;-67
2021/12/31 05:46:33;;;;;;;;;;;2.20;97.10;;;;;;5052898;28;19964;-67
2021/12/31 05:48:59;;;;;;;;;;;2.20;97.10;;;;;;5052888;28;20411;-67
2021/12/31 05:51:27;;;;;;;;;;;2.20;97.10;;;;;;5052714;28;19959;-67
2021/12/31 05:53:53;;;;;;;;;;;2.20;97.10;;;;;;5052821;28;20202;-67
2021/12/31 05:56:18;;;;;;;;;;;2.20;97.10;;;;;;5052734;28;20313;-67
2021/12/31 05:58:44;;;;;;;;;;;2.30;97.20;;;;;;5052721;28;19944;-67
2021/12/31 06:01:10;;;;;;;;;;;2.30;97.10;;;;;;5052709;28;19965;-67
2021/12/31 06:03:35;;;;;;;;;;;2.30;97.20;;;;;;5052656;28;19941;-67
2021/12/31 06:06:01;;;;;;;;;;;2.40;97.20;;;;;;5052649;28;19941;-67
2021/12/31 06:08:26;;;;;;;;;;;2.40;97.20;;;;;;5052442;28;19980;-68
2021/12/31 06:10:52;;;;;;;;;;;2.40;97.20;;;;;;5052592;28;19967;-67
2021/12/31 06:13:18;;;;;;;;;;;2.40;97.20;;;;;;5052564;28;19949;-67
2021/12/31 06:15:44;;;;;;;;;;;2.40;97.10;;;;;;5052807;28;19949;-67
2021/12/31 06:18:10;;;;;;;;;;;2.30;97.10;;;;;;5034731;28;19955;-67
2021/12/31 06:20:36;;;;;;;;;;;2.30;97.10;;;;;;5052520;28;19937;-67
2021/12/31 06:23:01;;;;;;;;;;;2.10;97.00;;;;;;5052521;28;19944;-67
2021/12/31 06:25:27;;;;;;;;;;;2.00;97.00;;;;;;5052450;28;19935;-67
2021/12/31 06:27:53;;;;;;;;;;;2.00;97.00;;;;;;5034496;28;20419;-67
2021/12/31 06:30:19;;;;;;;;;;;2.00;97.00;;;;;;5052467;28;19952;-67
2021/12/31 06:32:44;;;;;;;;;;;1.90;97.00;;;;;;5052387;28;20050;-67
2021/12/31 06:35:10;;;;;;;;;;;1.80;96.90;;;;;;5052441;28;20400;-67
2021/12/31 06:37:36;;;;;;;;;;;1.70;96.90;;;;;;5052386;28;20418;-67
2021/12/31 06:40:05;;;;;;;;;;;1.70;97.00;;;;;;5052419;28;19945;-67
2021/12/31 06:42:31;;;;;;;;;;;1.60;97.00;;;;;;5052375;28;20049;-67
2021/12/31 06:44:56;;;;;;;;;;;1.60;97.00;;;;;;5052338;28;19965;-67
2021/12/31 06:47:22;;;;;;;;;;;1.60;97.00;;;;;;5054644;28;20406;-67
2021/12/31 06:49:48;;;;;;;;;;;1.60;97.00;;;;;;5055865;28;19959;-67
2021/12/31 06:52:13;;;;;;;;;;;1.60;97.00;;;;;;5055619;28;19957;-67
2021/12/31 06:54:39;;;;;;;;;;;1.60;97.00;;;;;;5055104;28;19944;-67
2021/12/31 06:57:04;;;;;;;;;;;1.60;97.00;;;;;;5055697;28;19942;-67
2021/12/31 06:59:30;;;;;;;;;;;1.60;97.00;;;;;;5055986;28;19936;-67
2021/12/31 07:01:57;;;;;;;;;;;1.50;97.10;;;;;;5055676;28;19941;-67
2021/12/31 07:04:23;;;;;;;;;;;1.60;97.10;;;;;;5055619;28;19946;-67
2021/12/31 07:06:48;;;;;;;;;;;1.60;97.10;;;;;;5055601;28;19950;-67
2021/12/31 07:09:14;;;;;;;;;;;1.70;97.10;;;;;;5055304;28;20028;-67
2021/12/31 07:11:39;;;;;;;;;;;1.70;97.10;;;;;;5037520;28;20006;-67
2021/12/31 07:14:05;;;;;;;;;;;1.50;97.10;;;;;;5055405;28;20305;-67
2021/12/31 07:16:31;;;;;;;;;;;1.50;97.10;;;;;;5037503;28;20406;-67
2021/12/31 07:18:56;;;;;;;;;;;1.50;97.10;;;;;;5055294;28;19983;-67
2021/12/31 07:21:22;;;;;;;;;;;1.50;97.10;;;;;;5055306;28;19955;-67
2021/12/31 07:23:47;;;;;;;;;;;1.60;97.20;;;;;;5055242;28;19944;-67
2021/12/31 07:26:13;;;;;;;;;;;1.70;97.20;;;;;;5055144;28;20203;-67
2021/12/31 07:28:38;;;;;;;;;;;1.70;97.20;;;;;;5055035;28;20286;-67
2021/12/31 07:31:06;;;;;;;;;;;1.70;97.20;;;;;;5037128;28;20010;-67
2021/12/31 07:33:32;;;;;;;;;;;1.80;97.20;;;;;;5055042;28;19941;-67
2021/12/31 07:36:00;;;;;;;;;;;1.70;97.20;;;;;;5054944;28;19942;-67
2021/12/31 07:38:36;;;;;;;;;;;1.70;97.10;;;;;;5054947;28;19990;-67
2021/12/31 07:41:02;;;;;;;;;;;1.80;97.20;;;;;;5054941;28;19939;-67
2021/12/31 07:43:28;;;;;;;;;;;1.90;97.20;;;;;;5054839;28;20359;-67
2021/12/31 07:45:54;;;;;;;;;;;1.90;97.20;;;;;;5054814;28;19944;-67
2021/12/31 07:48:21;;;;;;;;;;;1.90;97.10;;;;;;5055037;28;19957;-67
2021/12/31 07:50:47;;;;;;;;;;;1.90;97.10;;;;;;5054672;28;19998;-67
2021/12/31 07:53:12;;;;;;;;;;;1.90;97.10;;;;;;5054920;28;19948;-67
2021/12/31 07:55:38;;;;;;;;;;;1.90;97.10;;;;;;5036715;28;19954;-67
2021/12/31 07:58:05;;;;;;;;;;;1.90;97.00;;;;;;5054116;28;19946;-67
2021/12/31 08:00:31;;;;;;;;;;;1.90;97.00;;;;;;5036545;28;19985;-67
2021/12/31 08:02:57;;;;;;;;;;;1.90;97.00;;;;;;5054457;28;20402;-67
2021/12/31 08:05:24;;;;;;;;;;;1.80;96.90;;;;;;5054351;28;19939;-67
2021/12/31 08:07:49;;;;;;;;;;;1.80;96.90;;;;;;5054391;28;19945;-67
2021/12/31 08:10:15;;;;;;;;;;;1.70;96.90;;;;;;5054047;28;20072;-67
2021/12/31 08:12:40;;;;;;;;;;;1.70;96.80;;;;;;5054185;28;19961;-67
2021/12/31 08:15:06;;;;;;;;;;;1.60;96.70;;;;;;5054198;28;19944;-67
2021/12/31 08:17:32;;;;;;;;;;;1.50;96.70;;;;;;5054211;28;20366;-67
2021/12/31 08:19:57;;;;;;;;;;;1.50;96.60;;;;;;5054092;28;20035;-67
2021/12/31 08:22:24;;;;;;;;;;;1.50;96.60;;;;;;5054009;28;19954;-67
2021/12/31 08:24:49;;;;;;;;;;;1.60;96.70;;;;;;5054057;28;19995;-67
2021/12/31 08:27:15;;;;;;;;;;;1.70;96.70;;;;;;5053770;28;20301;-67
2021/12/31 08:29:40;;;;;;;;;;;1.80;96.70;;;;;;5054226;28;19943;-67
2021/12/31 08:32:06;;;;;;;;;;;1.80;96.70;;;;;;5053791;28;19944;-67
2021/12/31 08:34:32;;;;;;;;;;;1.80;96.60;;;;;;5053780;28;20409;-67
2021/12/31 08:36:57;;;;;;;;;;;1.80;96.60;;;;;;5053795;28;19947;-67
2021/12/31 08:39:23;;;;;;;;;;;1.80;96.50;;;;;;5053807;28;19948;-67
2021/12/31 08:41:49;;;;;;;;;;;1.70;96.30;;;;;;5052540;28;20294;-71
2021/12/31 08:44:14;;;;;;;;;;;1.70;96.20;;;;;;5035578;28;19949;-68
2021/12/31 08:46:41;;;;;;;;;;;1.60;96.00;;;;;;5053578;28;19938;-67
2021/12/31 08:49:07;;;;;;;;;;;1.70;96.10;;;;;;5053411;28;19952;-67
2021/12/31 08:51:33;;;;;;;;;;;1.70;96.10;;;;;;5035301;28;20327;-67
2021/12/31 08:53:58;;;;;;;;;;;1.80;96.10;;;;;;5035430;28;19949;-67
2021/12/31 08:56:24;;;;;;;;;;;1.80;96.00;;;;;;5053491;28;20031;-67
2021/12/31 08:58:49;;;;;;;;;;;1.90;96.10;;;;;;5053409;28;19938;-67
2021/12/31 09:01:15;;;;;;;;;;;1.90;96.10;;;;;;5053359;28;19950;-67
2021/12/31 09:03:41;;;;;;;;;;;1.90;96.20;;;;;;5035534;28;20429;-67
2021/12/31 09:06:06;;;;;;;;;;;2.00;96.10;;;;;;5053322;28;19945;-67
2021/12/31 09:08:33;;;;;;;;;;;2.00;96.10;;;;;;5052548;28;19997;-67
2021/12/31 09:10:58;;;;;;;;;;;2.20;96.20;;;;;;5052941;28;20367;-67
2021/12/31 09:13:24;;;;;;;;;;;2.30;96.20;;;;;;5035381;28;19947;-67
2021/12/31 09:15:50;;;;;;;;;;;2.50;96.20;;;;;;5053163;28;19946;-68
2021/12/31 09:18:15;;;;;;;;;;;2.50;96.10;;;;;;5053162;28;19989;-68
2021/12/31 09:20:41;;;;;;;;;;;2.60;96.00;;;;;;5035228;28;19949;-68
2021/12/31 09:23:07;;;;;;;;;;;2.70;95.90;;;;;;5053098;28;19984;-68
2021/12/31 09:25:32;;;;;;;;;;;2.80;95.80;;;;;;5053092;28;20048;-67
2021/12/31 09:27:58;;;;;;;;;;;2.90;95.70;;;;;;5052911;28;20140;-68
2021/12/31 09:30:23;;;;;;;;;;;3.00;95.50;;;;;;5053004;28;19941;-68
2021/12/31 09:32:49;;;;;;;;;;;3.00;95.30;;;;;;5052914;28;19954;-67
2021/12/31 09:35:14;;;;;;;;;;;3.10;95.40;;;;;;5052980;28;19943;-67
2021/12/31 09:37:40;;;;;;;;;;;3.20;95.40;;;;;;5052971;28;20024;-67
2021/12/31 09:40:08;;;;;;;;;;;3.30;95.20;;;;;;5035096;28;19944;-67
2021/12/31 09:42:33;;;;;;;;;;;3.30;94.90;;;;;;5052823;28;19947;-67
2021/12/31 09:44:59;;;;;;;;;;;3.30;94.70;;;;;;5052834;28;19944;-67
2021/12/31 09:47:24;;;;;;;;;;;3.30;94.70;;;;;;5052801;28;19957;-67
2021/12/31 09:49:50;;;;;;;;;;;3.30;94.70;;;;;;5052621;28;20043;-67
2021/12/31 09:52:17;;;;;;;;;;;3.40;94.80;;;;;;5052738;28;20065;-67
2021/12/31 09:54:44;;;;;;;;;;;3.40;94.90;;;;;;5051893;28;19984;-68
2021/12/31 09:57:18;;;;;;;;;;;3.50;95.00;;;;;;5051224;28;19945;-67
2021/12/31 09:59:44;;;;;;;;;;;3.70;95.10;;;;;;5062810;28;19971;-67
2021/12/31 10:02:10;;;;;;;;;;;3.80;95.20;;;;;;5052394;28;19943;-68
2021/12/31 10:05:04;;;;;;;;;;;3.90;95.30;;;;;;5052665;28;20437;-67
2021/12/31 10:07:30;;;;;;;;;;;4.10;95.40;;;;;;5021936;28;19948;-68
2021/12/31 10:10:07;;;;;;;;;;;4.20;95.30;;;;;;5051403;28;19987;-67
2021/12/31 10:12:49;;;;;;;;;;;4.30;95.20;;;;;;5052566;28;19960;-68
2021/12/31 10:15:17;;;;;;;;;;;4.40;95.10;;;;;;5052588;28;20006;-68
2021/12/31 10:17:43;;;;;;;;;;;4.60;95.10;;;;;;5052589;28;19940;-67
2021/12/31 10:20:09;;;;;;;;;;;4.70;95.00;;;;;;5053095;28;19987;-67
2021/12/31 10:22:34;;;;;;;;;;;4.80;95.00;;;;;;5056677;28;20104;-67
2021/12/31 10:25:00;;;;;;;;;;;4.90;94.90;;;;;;5056314;28;20028;-68
2021/12/31 10:27:26;;;;;;;;;;;5.10;94.80;;;;;;5038267;28;20219;-68
2021/12/31 10:29:55;;;;;;;;;;;5.20;94.80;;;;;;5056268;28;19946;-67
2021/12/31 10:32:22;;;;;;;;;;;5.40;94.60;;;;;;5056427;28;19944;-67
2021/12/31 10:34:48;;;;;;;;;;;5.50;94.30;;;;;;5056207;28;19963;-67
2021/12/31 10:37:22;;;;;;;;;;;5.60;93.70;;;;;;5056208;28;20391;-67
2021/12/31 10:39:54;;;;;;;;;;;5.70;93.30;;;;;;5056082;28;19944;-67
2021/12/31 10:42:20;;;;;;;;;;;5.80;93.50;;;;;;5038107;28;19989;-67
2021/12/31 10:44:52;;;;;;;;;;;5.90;93.60;;;;;;5055898;28;19974;-67
2021/12/31 10:47:29;;;;;;;;;;;6.00;93.50;;;;;;5055969;28;20045;-67
2021/12/31 10:49:54;;;;;;;;;;;6.10;93.40;;;;;;5038002;28;20043;-67
2021/12/31 10:52:25;;;;;;;;;;;6.20;92.90;;;;;;5055824;28;20072;-67
2021/12/31 10:55:01;;;;;;;;;;;6.30;92.40;;;;;;5037872;28;19952;-67
2021/12/31 10:57:34;;;;;;;;;;;6.30;91.50;;;;;;5055753;28;19939;-67
2021/12/31 11:00:00;;;;;;;;;;;6.30;91.20;;;;;;5055673;28;20422;-67
2021/12/31 11:02:25;;;;;;;;;;;6.30;91.20;;;;;;5055661;28;19945;-67
2021/12/31 11:04:51;;;;;;;;;;;6.40;91.90;;;;;;5056159;28;20033;-67
2021/12/31 11:07:17;;;;;;;;;;;6.50;92.00;;;;;;5055573;28;19984;-67
2021/12/31 11:09:43;;;;;;;;;;;6.70;91.90;;;;;;5055326;28;20460;-67
2021/12/31 11:12:10;;;;;;;;;;;6.90;91.80;;;;;;5055405;28;20467;-67
2021/12/31 11:14:36;;;;;;;;;;;7.00;91.70;;;;;;5055426;28;19940;-67
2021/12/31 11:17:02;;;;;;;;;;;7.10;91.30;;;;;;5055441;28;20438;-67
2021/12/31 11:19:28;;;;;;;;;;;7.40;91.20;;;;;;5055310;28;20413;-68
2021/12/31 11:21:54;;;;;;;;;;;7.60;90.80;;;;;;5055265;28;19939;-67
2021/12/31 11:24:26;;;;;;;;;;;7.80;90.50;;;;;;5037415;28;19983;-67
2021/12/31 11:26:52;;;;;;;;;;;7.90;89.80;;;;;;5055133;28;19941;-67
2021/12/31 11:29:17;;;;;;;;;;;8.10;89.60;;;;;;5055189;28;20285;-67
2021/12/31 11:31:43;;;;;;;;;;;8.30;89.20;;;;;;5054414;28;19959;-67
2021/12/31 11:34:11;;;;;;;;;;;8.40;88.20;;;;;;5054990;28;19945;-67
2021/12/31 11:36:40;;;;;;;;;;;8.50;87.40;;;;;;5055086;28;19937;-67
2021/12/31 11:39:15;;;;;;;;;;;8.60;87.50;;;;;;5055007;28;20025;-67
2021/12/31 11:41:41;;;;;;;;;;;8.80;87.50;;;;;;5054960;28;19996;-67
2021/12/31 11:44:09;;;;;;;;;;;8.80;86.90;;;;;;5054907;28;19981;-67
2021/12/31 11:46:40;;;;;;;;;;;9.00;86.40;;;;;;5054876;28;19936;-67
2021/12/31 11:49:10;;;;;;;;;;;9.40;84.90;;;;;;5054798;28;19940;-67
2021/12/31 11:51:38;;;;;;;;;;;9.80;83.30;;;;;;5054641;28;20033;-67
2021/12/31 11:54:06;;;;;;;;;;;10.20;80.50;;;;;;5054757;28;19942;-67
2021/12/31 11:56:41;;;;;;;;;;;10.70;78.40;;;;;;5054690;28;19950;-67
2021/12/31 11:59:07;;;;;;;;;;;11.00;77.50;;;;;;5054654;28;19956;-68
2021/12/31 12:01:38;;;;;;;;;;;11.30;76.00;;;;;;5054636;28;19937;-67
2021/12/31 12:04:26;;;;;;;;;;;11.40;74.70;;;;;;5054845;28;19946;-67
2021/12/31 12:06:52;;;;;;;;;;;11.70;73.70;;;;;;5054473;28;20382;-67
2021/12/31 12:09:17;;;;;;;;;;;11.80;72.70;;;;;;5054226;28;19985;-67
2021/12/31 12:12:01;;;;;;;;;;;12.20;72.00;;;;;;5054315;28;19955;-67
2021/12/31 12:14:37;;;;;;;;;;;12.40;69.90;;;;;;5036467;28;20069;-67
2021/12/31 12:17:03;;;;;;;;;;;12.70;69.00;;;;;;5054225;28;19939;-67
2021/12/31 12:19:50;;;;;;;;;;;13.00;68.00;;;;;;5036396;28;19945;-67
2021/12/31 12:22:25;;;;;;;;;;;13.00;68.20;;;;;;5054180;28;19957;-67
2021/12/31 12:24:52;;;;;;;;;;;13.20;68.40;;;;;;5054155;28;20361;-67
2021/12/31 12:27:17;;;;;;;;;;;13.40;67.10;;;;;;5053945;28;19945;-67
2021/12/31 12:29:44;;;;;;;;;;;13.50;67.30;;;;;;5054034;28;19985;-67
2021/12/31 12:32:11;;;;;;;;;;;13.40;66.60;;;;;;5053903;28;19966;-67
2021/12/31 12:34:36;;;;;;;;;;;13.60;67.30;;;;;;5053950;28;19943;-67
2021/12/31 12:37:02;;;;;;;;;;;13.60;66.60;;;;;;5036022;28;19954;-67
2021/12/31 12:39:27;;;;;;;;;;;13.80;65.80;;;;;;5053780;28;19977;-67
2021/12/31 12:41:53;;;;;;;;;;;13.80;65.70;;;;;;5053852;28;19936;-67
2021/12/31 12:44:19;;;;;;;;;;;13.70;65.60;;;;;;5053951;28;19944;-68
2021/12/31 12:46:51;;;;;;;;;;;13.90;64.50;;;;;;5035815;28;19958;-67
2021/12/31 12:49:18;;;;;;;;;;;13.90;64.60;;;;;;5053661;28;20070;-67
2021/12/31 12:51:43;;;;;;;;;;;13.90;64.60;;;;;;5053594;28;19958;-67
2021/12/31 12:54:11;;;;;;;;;;;13.80;65.80;;;;;;5053581;28;20428;-67
2021/12/31 12:56:37;;;;;;;;;;;13.70;66.10;;;;;;5035700;28;19949;-67
2021/12/31 12:59:03;;;;;;;;;;;13.70;66.20;;;;;;5053503;28;20029;-69
2021/12/31 13:01:39;;;;;;;;;;;13.90;64.40;;;;;;5053514;28;20049;-68
2021/12/31 13:04:06;;;;;;;;;;;13.70;65.20;;;;;;5053392;28;20023;-67
2021/12/31 13:06:32;;;;;;;;;;;13.90;64.90;;;;;;5035466;28;20045;-67
2021/12/31 13:09:10;;;;;;;;;;;13.90;64.50;;;;;;5060576;22;20513;-67
2021/12/31 13:11:37;;;;;;;;;;;14.10;64.20;;;;;;5053519;28;19963;-67
2021/12/31 13:14:12;;;;;;;;;;;14.60;63.80;;;;;;5034966;28;20501;-67
2021/12/31 13:16:39;;;;;;;;;;;14.70;61.90;;;;;;5053186;28;20464;-68
2021/12/31 13:19:08;;;;;;;;;;;14.70;62.10;;;;;;5053232;28;19959;-67
2021/12/31 13:21:35;;;;;;;;;;;15.00;61.60;;;;;;5053177;28;19943;-67
2021/12/31 13:24:00;;;;;;;;;;;14.90;61.00;;;;;;5053157;28;19950;-67
2021/12/31 13:26:27;;;;;;;;;;;15.00;61.50;;;;;;5053030;28;19942;-67
2021/12/31 13:29:10;;;;;;;;;;;14.90;62.00;;;;;;5053327;28;20030;-67
2021/12/31 13:31:38;;;;;;;;;;;14.70;61.90;;;;;;5053244;28;19961;-67
2021/12/31 13:34:11;;;;;;;;;;;14.40;61.80;;;;;;5053020;28;19944;-67
2021/12/31 13:36:50;;;;;;;;;;;14.30;63.00;;;;;;5052961;28;19941;-67
2021/12/31 13:39:19;;;;;;;;;;;14.30;63.20;;;;;;5052991;28;20386;-67
2021/12/31 13:41:54;;;;;;;;;;;14.10;63.10;;;;;;5052967;28;20027;-67
2021/12/31 13:44:21;;;;;;;;;;;13.80;64.70;;;;;;5052854;28;19973;-67
2021/12/31 13:46:48;;;;;;;;;;;13.50;65.50;;;;;;5052941;28;20472;-67
2021/12/31 13:49:20;;;;;;;;;;;12.90;68.00;;;;;;5052891;28;19944;-67
2021/12/31 13:51:46;;;;;;;;;;;12.50;69.80;;;;;;5053007;28;19972;-67
2021/12/31 13:54:14;;;;;;;;;;;12.30;71.00;;;;;;5053148;28;19951;-67
2021/12/31 13:56:40;;;;;;;;;;;12.40;70.50;;;;;;5055875;28;19938;-67
2021/12/31 13:59:25;;;;;;;;;;;12.30;70.60;;;;;;5056844;28;19951;-67
2021/12/31 14:02:09;;;;;;;;;;;12.40;70.10;;;;;;5056832;28;20333;-67
2021/12/31 14:04:53;;;;;;;;;;;12.50;69.40;;;;;;5056793;28;20229;-67
2021/12/31 14:07:21;;;;;;;;;;;12.60;68.70;;;;;;5056727;28;19950;-67
2021/12/31 14:09:49;;;;;;;;;;;12.90;68.20;;;;;;5038481;28;19983;-67
2021/12/31 14:12:15;;;;;;;;;;;13.10;67.60;;;;;;5056573;28;20018;-67
2021/12/31 14:14:41;;;;;;;;;;;13.20;66.60;;;;;;5056620;28;19943;-67
2021/12/31 14:17:08;;;;;;;;;;;13.10;65.50;;;;;;5056557;28;19946;-67
2021/12/31 14:19:33;;;;;;;;;;;12.90;67.00;;;;;;5056574;28;19940;-67
2021/12/31 14:22:00;;;;;;;;;;;12.90;67.30;;;;;;5056495;28;20045;-67
2021/12/31 14:24:26;;;;;;;;;;;12.70;67.30;;;;;;5056420;28;19943;-67
2021/12/31 14:26:51;;;;;;;;;;;12.80;67.20;;;;;;5056297;28;20010;-67
2021/12/31 14:29:18;;;;;;;;;;;12.70;67.20;;;;;;5056334;28;20228;-67
2021/12/31 14:31:44;;;;;;;;;;;12.60;67.40;;;;;;5056266;28;19982;-67